METAR Data
IDs: Format: Raw Decoded Include TAF

Data at: 1350 UTC 14 Dec 2019

PAKT 141253Z AUTO 00000KT 10SM OVC027 02/01 A3005 RMK SLP175 T00170011 TSNO VIA AUTODIAL
PAKT 141242Z AUTO 00000KT 10SM OVC029 01/01 A3005 RMK T00110011 TSNO VIA AUTODIAL
PAKT 141153Z AUTO 35003KT 10SM FEW010 FEW020 OVC033 02/02 A3005 RMK SLP176 70099 T00220017 10033 20011 53003 TSNO VIA AUTODIAL
PAKT 141122Z AUTO 00000KT 10SM FEW010 SCT021 BKN035 01/01 A3005 RMK T00110011 TSNO VIA AUTODIAL
PAKT 141107Z AUTO 00000KT 10SM SCT009 BKN021 BKN039 01/01 A3005 RMK T00110006 TSNO VIA AUTODIAL
PAKT 141053Z AUTO 00000KT 10SM SCT010 BKN039 BKN060 02/02 A3004 RMK SLP174 T00170017 TSNO VIA AUTODIAL
PAKT 140953Z AUTO 00000KT 10SM OVC010 03/02 A3004 RMK SLP174 T00280022 TSNO VIA AUTODIAL
PAKT 140853Z AUTO 15003KT 10SM BKN011 OVC033 03/02 A3004 RMK SLP173 T00280022 400560028 51004 TSNO VIA AUTODIAL
PAKT 140835Z AUTO 00000KT 10SM BKN011 OVC033 03/02 A3004 RMK T00280022 TSNO VIA AUTODIAL
PAKT 140753Z AUTO 17003KT 10SM BKN019 OVC035 03/02 A3004 RMK SLP172 T00330022 TSNO VIA AUTODIAL
PAKT 140653Z AUTO 00000KT 10SM OVC015 03/03 A3004 RMK SLP172 T00330028 TSNO VIA AUTODIAL
PAKT 140651Z AUTO 00000KT 10SM OVC015 03/03 A3004 RMK TSNO VIA AUTODIAL
PAKT 140625Z AUTO 15003KT 10SM BKN012 OVC021 03/03 A3003 RMK T00330028 TSNO VIA AUTODIAL
PAKT 140553Z 17004KT 10SM BKN018 BKN023 OVC030 03/03 A3003 RMK SLP169 HARBOR WIND 08007KT 60002 T00330028 10039 20033 53005 VIA AUTODIAL
PAKT 140453Z 15004KT 10SM OVC018 04/03 A3002 RMK RAB0359E51 SLP167 HARBOR WIND 13008KT P0000 T00390028 VIA AUTODIAL
PAKT 140451Z 15004KT 10SM OVC018 04/03 A3002 RMK RAB0359E51 HARBOR WIND 13008KT P0000 VIA AUTODIAL
PAKT 140353Z 16006KT 7SM FEW009 OVC013 04/03 A3002 RMK SLP165 HARBOR WIND 14007KT T00390033 VIA AUTODIAL
PAKT 140351Z 17005KT 8SM OVC013 04/03 A3002 RMK HARBOR WIND 14007KT VIA AUTODIAL
PAKT 140253Z 00000KT 10SM OVC019 04/03 A3001 RMK RAE0155 SLP164 HARBOR WIND VRB05KT P0000 60002 T00390033 50000 VIA AUTODIAL
PAKT 140153Z 17005KT 10SM -RA BKN018 BKN023 OVC039 04/03 A3002 RMK SLP165 HARBOR WIND 14008KT P0001 T00390028 VIA AUTODIAL
PAKT 140151Z 17006KT 10SM -RA BKN018 BKN025 OVC037 04/03 A3002 RMK HARBOR WIND 14008KT P0001 VIA AUTODIAL
PAKT 140053Z 15004KT 6SM -RA BR BKN011 OVC015 04/03 A3002 RMK RAB28 SLP165 HARBOR WIND VRB05KT P0001 T00390033 VIA AUTODIAL
PAKT 140051Z 14004KT 8SM -RA BKN011 OVC015 04/03 A3002 RMK RAB28 HARBOR WIND VRB05KT P0000 VIA AUTODIAL
PAKT 132353Z 16005KT 10SM FEW006 BKN015 OVC030 03/03 A3001 RMK RAE40 SLP164 HARBOR WIND 12009KT P0005 60095 T00330028 10044 20033 53001 VIA AUTODIAL
PAKT 132351Z 17004KT 10SM FEW006 BKN015 OVC030 03/03 A3001 RMK RAE40 HARBOR WIND 12009KT P0005 VIA AUTODIAL
PAKT 132253Z 28005KT 3SM RA BR OVC020 03/03 A3001 RMK SLP162 HARBOR WIND 28010KT VSBY 2V4 P0026 T00330028 VIA AUTODIAL
PAKT 132153Z 35003KT 3SM -RA BR FEW005 SCT016 OVC025 04/03 A3000 RMK SLP158 HARBOR WIND 33008KT P0020 T00390033 VIA AUTODIAL
PAKT 132151Z 35003KT 3SM -RA BR FEW005 SCT016 OVC025 04/03 A3000 RMK HARBOR WIND 33008KT P0020 VIA AUTODIAL
PAKT 132053Z 00000KT 3SM R11/3500VP6000FT -RA BR SCT010 OVC020 04/04 A3001 RMK SLP163 HARBOR WIND 26010KT P0025 60044 T00390039 51006 VIA AUTODIAL
PAKT 131953Z 00000KT 7SM RA SCT010 BKN020 OVC030 04/04 A3001 RMK SLP162 HARBOR WIND 03008KT P0013 T00440039 VIA AUTODIAL
PAKT 131853Z 00000KT 5SM -RA BR SCT017 BKN024 OVC034 04/04 A3000 RMK RAB02 SLP161 HARBOR WIND 02008KT P0006 T00440044 VIA AUTODIAL
PAKT 131851Z 00000KT 5SM -RA BR SCT017 BKN024 OVC034 04/04 A3001 RMK RAB02 HARBOR WIND 02008KT P0006 VIA AUTODIAL
PAKT 131753Z 19004KT 10SM SCT017 SCT024 OVC031 04/04 A2999 RMK RAE25 SLP157 HARBOR WIND 13010KT P0001 60002 T00440039 10056 20039 53009 VIA AUTODIAL
PAKT 131751Z VRB03KT 10SM SCT017 SCT024 OVC031 04/04 A2999 RMK RAE25 HARBOR WIND 13010KT P0001 VIA AUTODIAL
PAKT 131653Z 00000KT 7SM -RA FEW007 BKN012 OVC028 04/04 A2999 RMK RAB17 SLP155 HARBOR WIND 03007KT P0001 T00440039 VIA AUTODIAL
PAKT 131651Z 00000KT 7SM FEW007 BKN012 OVC028 04/04 A2998 RMK RAB17E51 HARBOR WIND 03007KT P0001 VIA AUTODIAL
PAKT 131553Z 16003KT 10SM SCT012 BKN020 OVC030 04/04 A2997 RMK SLP150 HARBOR WIND VRB05KT T00440039 VIA AUTODIAL
PAKT 131513Z 16005KT 10SM BKN024 BKN032 OVC070 04/03 A2997 RMK HARBOR WIND 13010KT T00390033 VIA AUTODIAL
PAKT 131453Z AUTO 15004KT 10SM FEW030 BKN050 BKN070 04/03 A2997 RMK RAE1357B16E36 SLP148 P0000 60000 T00390033 53009 TSNO VIA AUTODIAL
PAKT 131403Z AUTO 17005KT 10SM SCT007 OVC060 05/04 A2996 RMK RAE1357 P0000 T00500044 TSNO VIA AUTODIAL
PAKT 131353Z AUTO 15005KT 10SM -RA BKN007 BKN027 OVC065 05/04 A2996 RMK RAB28 SLP145 P0000 T00500044 TSNO VIA AUTODIAL
PAKT 131253Z AUTO 17003KT 10SM OVC005 06/05 A2995 RMK SLP142 T00560050 TSNO VIA AUTODIAL
PAKT 131153Z AUTO 17005KT 10SM OVC005 05/05 A2994 RMK SLP139 60000 70043 T00500050 10056 20050 51020 TSNO VIA AUTODIAL
PAKT 131053Z AUTO 16004KT 10SM BKN006 OVC013 05/05 A2992 RMK SLP134 T00500050 TSNO VIA AUTODIAL
PAKT 131043Z AUTO 16003KT 10SM BKN006 OVC012 05/05 A2992 RMK T00500050 TSNO VIA AUTODIAL
PAKT 131027Z AUTO 15004KT 10SM FEW006 OVC012 05/05 A2992 RMK T00500050 TSNO VIA AUTODIAL
PAKT 130953Z AUTO 16005KT 10SM OVC012 05/05 A2990 RMK SLP127 T00500050 TSNO VIA AUTODIAL
PAKT 130853Z AUTO 16004KT 10SM OVC012 05/05 A2988 RMK SLP119 60000 T00500050 400610050 51029 TSNO VIA AUTODIAL
PAKT 130753Z AUTO 17005KT 10SM OVC010 06/05 A2986 RMK SLP111 T00560050 TSNO VIA AUTODIAL
PAKT 130716Z AUTO 17003KT 10SM OVC010 06/06 A2984 RMK T00560056 TSNO VIA AUTODIAL
PAKT 130653Z AUTO 16004KT 10SM OVC009 06/06 A2983 RMK RAB21E47 SLP101 P0000 T00560056 TSNO VIA AUTODIAL
PAKT 130610Z AUTO 15003KT 10SM BKN008 BKN044 OVC060 06/06 A2980 RMK T00560056 TSNO VIA AUTODIAL
PAKT 130553Z 14006KT 10SM BKN010 BKN019 OVC060 06/05 A2979 RMK SLP089 HARBOR WIND 16008KT 60004 T00560050 10061 20056 52028 VIA AUTODIAL
PAKT 130453Z 15005KT 10SM OVC010 06/05 A2977 RMK SLP080 HARBOR WIND 13007KT T00560050 VIA AUTODIAL
PAKT 130353Z 15005KT 10SM OVC013 06/06 A2974 RMK RAE0254 SLP071 HARBOR WIND VRB06KT P0000 T00610056 VIA AUTODIAL
PAKT 130253Z 15004KT 10SM -RA FEW007 OVC016 06/06 A2971 RMK RAB21 SLP061 P0001 60004 T00560056 53027 VIA AUTODIAL
PAKT 130153Z 16005KT 10SM FEW008 OVC016 06/06 A2968 RMK RAE48 SLP050 HARBOR WIND VRB05KT P0001 T00610056 VIA AUTODIAL
PAKT 130151Z 15005KT 10SM FEW008 OVC016 06/06 A2968 RMK RAE48 HARBOR WIND VRB05KT P0001 VIA AUTODIAL